sensor_id;sensor_type;location;lat;lon;timestamp;pressure;altitude;pressure_sealevel;temperature;humidity
16525;BME280;8375;33.594;-117.718;2023-01-29T00:02:29;100137.75;;;14.17;65.79
16525;BME280;8375;33.594;-117.718;2023-01-29T00:04:57;100135.97;;;14.18;65.83
16525;BME280;8375;33.594;-117.718;2023-01-29T00:07:26;100138.19;;;14.13;65.90
16525;BME280;8375;33.594;-117.718;2023-01-29T00:09:55;100132.31;;;14.01;66.14
16525;BME280;8375;33.594;-117.718;2023-01-29T00:12:23;100129.47;;;13.84;67.15
16525;BME280;8375;33.594;-117.718;2023-01-29T00:14:52;100128.09;;;13.80;67.12
16525;BME280;8375;33.594;-117.718;2023-01-29T00:17:21;100122.22;;;13.68;68.03
16525;BME280;8375;33.594;-117.718;2023-01-29T00:19:51;100125.00;;;13.47;68.67
16525;BME280;8375;33.594;-117.718;2023-01-29T00:22:19;100120.22;;;13.42;69.56
16525;BME280;8375;33.594;-117.718;2023-01-29T00:24:48;100120.16;;;13.32;70.71
16525;BME280;8375;33.594;-117.718;2023-01-29T00:27:17;100109.34;;;13.37;70.93
16525;BME280;8375;33.594;-117.718;2023-01-29T00:29:45;100112.63;;;13.29;70.71
16525;BME280;8375;33.594;-117.718;2023-01-29T00:32:34;100111.38;;;13.24;70.72
16525;BME280;8375;33.594;-117.718;2023-01-29T00:35:05;100109.03;;;13.20;70.82
16525;BME280;8375;33.594;-117.718;2023-01-29T00:37:34;100110.16;;;13.18;69.37
16525;BME280;8375;33.594;-117.718;2023-01-29T00:40:04;100103.84;;;13.11;69.50
16525;BME280;8375;33.594;-117.718;2023-01-29T00:42:33;100106.97;;;13.14;69.57
16525;BME280;8375;33.594;-117.718;2023-01-29T00:45:33;100109.31;;;13.08;69.28
16525;BME280;8375;33.594;-117.718;2023-01-29T00:48:03;100117.81;;;13.00;68.80
16525;BME280;8375;33.594;-117.718;2023-01-29T00:50:33;100122.19;;;12.89;68.92
16525;BME280;8375;33.594;-117.718;2023-01-29T00:53:02;100112.47;;;12.82;69.40
16525;BME280;8375;33.594;-117.718;2023-01-29T00:55:31;100114.50;;;12.78;69.92
16525;BME280;8375;33.594;-117.718;2023-01-29T00:58:00;100113.69;;;12.77;69.97
16525;BME280;8375;33.594;-117.718;2023-01-29T01:00:29;100116.00;;;12.71;69.66
16525;BME280;8375;33.594;-117.718;2023-01-29T01:02:59;100116.94;;;12.70;69.69
16525;BME280;8375;33.594;-117.718;2023-01-29T01:05:34;100111.88;;;12.68;69.99
16525;BME280;8375;33.594;-117.718;2023-01-29T01:08:04;100119.13;;;12.65;70.82
16525;BME280;8375;33.594;-117.718;2023-01-29T01:11:02;100119.81;;;12.57;70.18
16525;BME280;8375;33.594;-117.718;2023-01-29T01:13:32;100122.25;;;12.49;70.73
16525;BME280;8375;33.594;-117.718;2023-01-29T01:16:01;100126.34;;;12.41;71.21
16525;BME280;8375;33.594;-117.718;2023-01-29T01:18:29;100122.91;;;12.41;72.03
16525;BME280;8375;33.594;-117.718;2023-01-29T01:21:00;100127.25;;;12.30;72.40
16525;BME280;8375;33.594;-117.718;2023-01-29T01:23:29;100124.63;;;12.21;73.13
16525;BME280;8375;33.594;-117.718;2023-01-29T01:25:58;100134.34;;;12.18;73.22
16525;BME280;8375;33.594;-117.718;2023-01-29T01:28:27;100125.00;;;12.16;73.68
16525;BME280;8375;33.594;-117.718;2023-01-29T01:30:56;100129.66;;;12.12;74.37
16525;BME280;8375;33.594;-117.718;2023-01-29T01:33:25;100127.03;;;12.12;74.48
16525;BME280;8375;33.594;-117.718;2023-01-29T01:35:53;100130.59;;;12.11;74.73
16525;BME280;8375;33.594;-117.718;2023-01-29T01:38:24;100128.50;;;12.05;74.62
16525;BME280;8375;33.594;-117.718;2023-01-29T01:40:52;100122.97;;;11.98;75.35
16525;BME280;8375;33.594;-117.718;2023-01-29T01:43:21;100128.16;;;11.98;75.49
16525;BME280;8375;33.594;-117.718;2023-01-29T01:45:50;100137.06;;;11.96;75.21
16525;BME280;8375;33.594;-117.718;2023-01-29T01:48:21;100135.78;;;11.90;75.65
16525;BME280;8375;33.594;-117.718;2023-01-29T01:50:54;100135.22;;;11.86;75.85
16525;BME280;8375;33.594;-117.718;2023-01-29T01:53:29;100146.69;;;11.84;75.84
16525;BME280;8375;33.594;-117.718;2023-01-29T01:56:02;100152.28;;;11.79;76.22
16525;BME280;8375;33.594;-117.718;2023-01-29T01:58:35;100155.41;;;11.73;76.42
16525;BME280;8375;33.594;-117.718;2023-01-29T02:01:06;100158.00;;;11.73;76.79
16525;BME280;8375;33.594;-117.718;2023-01-29T02:03:43;100163.00;;;11.65;77.21
16525;BME280;8375;33.594;-117.718;2023-01-29T02:06:30;100167.38;;;11.64;77.51
16525;BME280;8375;33.594;-117.718;2023-01-29T02:09:22;100168.00;;;11.56;77.84
16525;BME280;8375;33.594;-117.718;2023-01-29T02:12:01;100169.06;;;11.54;78.41
16525;BME280;8375;33.594;-117.718;2023-01-29T02:14:30;100169.06;;;11.54;78.93
16525;BME280;8375;33.594;-117.718;2023-01-29T02:17:00;100171.81;;;11.52;79.55
16525;BME280;8375;33.594;-117.718;2023-01-29T02:19:41;100181.25;;;11.53;80.55
16525;BME280;8375;33.594;-117.718;2023-01-29T02:22:34;100187.66;;;11.49;81.87
16525;BME280;8375;33.594;-117.718;2023-01-29T02:28:31;100192.97;;;11.48;83.34
16525;BME280;8375;33.594;-117.718;2023-01-29T02:31:08;100198.06;;;11.49;83.69
16525;BME280;8375;33.594;-117.718;2023-01-29T02:33:50;100184.59;;;11.44;84.11
16525;BME280;8375;33.594;-117.718;2023-01-29T02:36:30;100184.72;;;11.42;84.30
16525;BME280;8375;33.594;-117.718;2023-01-29T02:39:06;100189.34;;;11.39;84.75
16525;BME280;8375;33.594;-117.718;2023-01-29T02:41:43;100196.19;;;11.40;85.13
16525;BME280;8375;33.594;-117.718;2023-01-29T02:44:20;100206.22;;;11.44;85.32
16525;BME280;8375;33.594;-117.718;2023-01-29T02:46:56;100204.56;;;11.43;85.39
16525;BME280;8375;33.594;-117.718;2023-01-29T02:49:31;100213.19;;;11.44;85.62
16525;BME280;8375;33.594;-117.718;2023-01-29T02:52:05;100212.25;;;11.45;85.66
16525;BME280;8375;33.594;-117.718;2023-01-29T02:54:40;100207.16;;;11.43;85.48
16525;BME280;8375;33.594;-117.718;2023-01-29T02:57:16;100203.75;;;11.43;85.98
16525;BME280;8375;33.594;-117.718;2023-01-29T02:59:54;100212.13;;;11.47;85.98
16525;BME280;8375;33.594;-117.718;2023-01-29T03:02:29;100202.56;;;11.47;85.77
16525;BME280;8375;33.594;-117.718;2023-01-29T03:05:02;100217.75;;;11.52;85.67
16525;BME280;8375;33.594;-117.718;2023-01-29T03:07:36;100215.06;;;11.53;85.56
16525;BME280;8375;33.594;-117.718;2023-01-29T03:10:14;100207.50;;;11.50;85.74
16525;BME280;8375;33.594;-117.718;2023-01-29T03:12:45;100205.00;;;11.49;85.82
16525;BME280;8375;33.594;-117.718;2023-01-29T03:15:21;100207.97;;;11.55;85.77
16525;BME280;8375;33.594;-117.718;2023-01-29T03:17:55;100204.03;;;11.61;85.58
16525;BME280;8375;33.594;-117.718;2023-01-29T03:20:29;100204.88;;;11.62;85.57
16525;BME280;8375;33.594;-117.718;2023-01-29T03:23:03;100201.66;;;11.58;85.57
16525;BME280;8375;33.594;-117.718;2023-01-29T03:25:34;100204.16;;;11.59;85.48
16525;BME280;8375;33.594;-117.718;2023-01-29T03:28:21;100211.38;;;11.56;86.18
16525;BME280;8375;33.594;-117.718;2023-01-29T03:31:11;100212.22;;;11.56;86.18
16525;BME280;8375;33.594;-117.718;2023-01-29T03:34:00;100208.66;;;11.57;86.21
16525;BME280;8375;33.594;-117.718;2023-01-29T03:36:35;100211.38;;;11.56;86.58
16525;BME280;8375;33.594;-117.718;2023-01-29T03:39:06;100218.09;;;11.58;86.44
16525;BME280;8375;33.594;-117.718;2023-01-29T03:41:39;100209.72;;;11.55;87.03
16525;BME280;8375;33.594;-117.718;2023-01-29T03:44:14;100212.22;;;11.56;87.20
16525;BME280;8375;33.594;-117.718;2023-01-29T03:46:51;100211.00;;;11.61;87.25
16525;BME280;8375;33.594;-117.718;2023-01-29T03:49:31;100214.31;;;11.63;87.83
16525;BME280;8375;33.594;-117.718;2023-01-29T03:52:11;100220.97;;;11.55;88.75
16525;BME280;8375;33.594;-117.718;2023-01-29T03:54:47;100230.41;;;11.56;88.84
16525;BME280;8375;33.594;-117.718;2023-01-29T03:57:27;100239.25;;;11.54;89.17
16525;BME280;8375;33.594;-117.718;2023-01-29T04:00:03;100231.59;;;11.52;89.34
16525;BME280;8375;33.594;-117.718;2023-01-29T04:02:47;100240.09;;;11.54;89.76
16525;BME280;8375;33.594;-117.718;2023-01-29T04:05:21;100245.88;;;11.58;89.26
16525;BME280;8375;33.594;-117.718;2023-01-29T04:07:56;100246.81;;;11.57;88.79
16525;BME280;8375;33.594;-117.718;2023-01-29T04:10:29;100247.91;;;11.54;89.60
16525;BME280;8375;33.594;-117.718;2023-01-29T04:13:04;100250.50;;;11.54;89.80
16525;BME280;8375;33.594;-117.718;2023-01-29T04:15:37;100244.72;;;11.51;89.78
16525;BME280;8375;33.594;-117.718;2023-01-29T04:18:10;100242.25;;;11.49;90.00
16525;BME280;8375;33.594;-117.718;2023-01-29T04:20:39;100238.00;;;11.48;90.18
16525;BME280;8375;33.594;-117.718;2023-01-29T04:23:19;100233.59;;;11.49;90.25
16525;BME280;8375;33.594;-117.718;2023-01-29T04:25:57;100244.59;;;11.52;89.70
16525;BME280;8375;33.594;-117.718;2023-01-29T04:28:43;100247.19;;;11.52;89.91
16525;BME280;8375;33.594;-117.718;2023-01-29T04:31:17;100239.50;;;11.51;90.22
16525;BME280;8375;33.594;-117.718;2023-01-29T04:33:55;100241.31;;;11.50;90.34
16525;BME280;8375;33.594;-117.718;2023-01-29T04:36:34;100239.66;;;11.49;90.29
16525;BME280;8375;33.594;-117.718;2023-01-29T04:39:11;100247.44;;;11.49;90.42
16525;BME280;8375;33.594;-117.718;2023-01-29T04:41:51;100248.63;;;11.45;89.90
16525;BME280;8375;33.594;-117.718;2023-01-29T04:44:25;100242.84;;;11.41;89.87
16525;BME280;8375;33.594;-117.718;2023-01-29T04:47:06;100253.94;;;11.43;89.70
16525;BME280;8375;33.594;-117.718;2023-01-29T04:49:45;100257.50;;;11.42;89.35
16525;BME280;8375;33.594;-117.718;2023-01-29T04:52:22;100255.59;;;11.44;89.74
16525;BME280;8375;33.594;-117.718;2023-01-29T04:55:01;100253.69;;;11.47;89.52
16525;BME280;8375;33.594;-117.718;2023-01-29T04:57:36;100262.19;;;11.49;88.15
16525;BME280;8375;33.594;-117.718;2023-01-29T05:00:10;100262.09;;;11.50;86.32
16525;BME280;8375;33.594;-117.718;2023-01-29T05:02:42;100262.09;;;11.50;86.47
16525;BME280;8375;33.594;-117.718;2023-01-29T05:05:15;100266.94;;;11.43;86.43
16525;BME280;8375;33.594;-117.718;2023-01-29T05:07:45;100259.97;;;11.44;85.93
16525;BME280;8375;33.594;-117.718;2023-01-29T05:10:17;100259.28;;;11.42;86.43
16525;BME280;8375;33.594;-117.718;2023-01-29T05:12:53;100268.59;;;11.44;85.44
16525;BME280;8375;33.594;-117.718;2023-01-29T05:15:25;100270.38;;;11.44;83.74
16525;BME280;8375;33.594;-117.718;2023-01-29T05:17:56;100270.25;;;11.45;83.36
16525;BME280;8375;33.594;-117.718;2023-01-29T05:20:30;100272.28;;;11.42;82.92
16525;BME280;8375;33.594;-117.718;2023-01-29T05:23:00;100267.31;;;11.39;82.05
16525;BME280;8375;33.594;-117.718;2023-01-29T05:25:31;100262.00;;;11.40;82.05
16525;BME280;8375;33.594;-117.718;2023-01-29T05:28:00;100256.53;;;11.43;81.59
16525;BME280;8375;33.594;-117.718;2023-01-29T05:30:32;100258.91;;;11.47;81.29
16525;BME280;8375;33.594;-117.718;2023-01-29T05:33:01;100261.63;;;11.45;80.57
16525;BME280;8375;33.594;-117.718;2023-01-29T05:35:32;100259.97;;;11.44;79.98
16525;BME280;8375;33.594;-117.718;2023-01-29T05:38:00;100259.38;;;11.40;79.36
16525;BME280;8375;33.594;-117.718;2023-01-29T05:40:29;100257.16;;;11.36;79.57
16525;BME280;8375;33.594;-117.718;2023-01-29T05:42:57;100267.19;;;11.40;78.95
16525;BME280;8375;33.594;-117.718;2023-01-29T05:45:26;100263.31;;;11.35;78.16
16525;BME280;8375;33.594;-117.718;2023-01-29T05:47:56;100260.97;;;11.32;78.52
16525;BME280;8375;33.594;-117.718;2023-01-29T05:50:25;100253.16;;;11.32;78.52
16525;BME280;8375;33.594;-117.718;2023-01-29T05:52:59;100260.25;;;11.29;78.61
16525;BME280;8375;33.594;-117.718;2023-01-29T05:55:28;100248.56;;;11.24;78.21
16525;BME280;8375;33.594;-117.718;2023-01-29T05:57:57;100251.28;;;11.22;77.87
16525;BME280;8375;33.594;-117.718;2023-01-29T06:00:26;100246.34;;;11.19;77.03
16525;BME280;8375;33.594;-117.718;2023-01-29T06:02:54;100243.38;;;11.12;77.14
16525;BME280;8375;33.594;-117.718;2023-01-29T06:05:23;100245.28;;;11.10;77.59
16525;BME280;8375;33.594;-117.718;2023-01-29T06:07:52;100241.25;;;11.06;77.65
16525;BME280;8375;33.594;-117.718;2023-01-29T06:10:22;100227.81;;;11.01;77.78
16525;BME280;8375;33.594;-117.718;2023-01-29T06:12:50;100233.25;;;10.98;78.10
16525;BME280;8375;33.594;-117.718;2023-01-29T06:15:19;100223.34;;;10.92;78.38
16525;BME280;8375;33.594;-117.718;2023-01-29T06:17:48;100240.00;;;10.89;78.83
16525;BME280;8375;33.594;-117.718;2023-01-29T06:20:16;100240.00;;;10.89;78.78
16525;BME280;8375;33.594;-117.718;2023-01-29T06:22:45;100242.84;;;10.86;78.87
16525;BME280;8375;33.594;-117.718;2023-01-29T06:25:14;100242.34;;;10.81;79.22
16525;BME280;8375;33.594;-117.718;2023-01-29T06:27:44;100245.78;;;10.81;79.39
16525;BME280;8375;33.594;-117.718;2023-01-29T06:30:13;100240.56;;;10.81;79.31
16525;BME280;8375;33.594;-117.718;2023-01-29T06:32:42;100234.56;;;10.81;79.66
16525;BME280;8375;33.594;-117.718;2023-01-29T06:35:11;100232.78;;;10.81;80.24
16525;BME280;8375;33.594;-117.718;2023-01-29T06:37:39;100234.56;;;10.81;80.50
16525;BME280;8375;33.594;-117.718;2023-01-29T06:40:09;100236.47;;;10.79;80.63
16525;BME280;8375;33.594;-117.718;2023-01-29T06:42:37;100239.88;;;10.79;81.03
16525;BME280;8375;33.594;-117.718;2023-01-29T06:45:09;100239.06;;;10.79;81.63
16525;BME280;8375;33.594;-117.718;2023-01-29T06:47:38;100239.63;;;10.82;81.64
16525;BME280;8375;33.594;-117.718;2023-01-29T06:50:07;100239.75;;;10.81;81.56
16525;BME280;8375;33.594;-117.718;2023-01-29T06:52:35;100238.94;;;10.80;81.98
16525;BME280;8375;33.594;-117.718;2023-01-29T06:55:05;100250.16;;;10.81;82.17
16525;BME280;8375;33.594;-117.718;2023-01-29T06:57:33;100246.47;;;10.83;82.74
16525;BME280;8375;33.594;-117.718;2023-01-29T07:00:02;100248.38;;;10.81;82.24
16525;BME280;8375;33.594;-117.718;2023-01-29T07:02:34;100252.97;;;10.78;81.98
16525;BME280;8375;33.594;-117.718;2023-01-29T07:05:04;100258.19;;;10.78;81.98
16525;BME280;8375;33.594;-117.718;2023-01-29T07:07:34;100259.34;;;10.74;82.28
16525;BME280;8375;33.594;-117.718;2023-01-29T07:10:04;100258.41;;;10.75;82.63
16525;BME280;8375;33.594;-117.718;2023-01-29T07:12:33;100260.41;;;10.71;82.41
16525;BME280;8375;33.594;-117.718;2023-01-29T07:15:02;100263.94;;;10.70;82.38
16525;BME280;8375;33.594;-117.718;2023-01-29T07:17:32;100264.78;;;10.70;82.48
16525;BME280;8375;33.594;-117.718;2023-01-29T07:20:01;100257.22;;;10.67;81.95
16525;BME280;8375;33.594;-117.718;2023-01-29T07:22:31;100248.13;;;10.62;82.33
16525;BME280;8375;33.594;-117.718;2023-01-29T07:25:00;100250.13;;;10.58;82.33
16525;BME280;8375;33.594;-117.718;2023-01-29T07:27:29;100248.59;;;10.55;82.67
16525;BME280;8375;33.594;-117.718;2023-01-29T07:29:58;100252.22;;;10.53;82.38
16525;BME280;8375;33.594;-117.718;2023-01-29T07:32:28;100241.28;;;10.49;81.89
16525;BME280;8375;33.594;-117.718;2023-01-29T07:34:59;100234.75;;;10.44;82.56
16525;BME280;8375;33.594;-117.718;2023-01-29T07:37:28;100236.66;;;10.41;82.84
16525;BME280;8375;33.594;-117.718;2023-01-29T07:39:58;100240.38;;;10.37;82.56
16525;BME280;8375;33.594;-117.718;2023-01-29T07:42:27;100239.44;;;10.38;83.14
16525;BME280;8375;33.594;-117.718;2023-01-29T07:44:55;100242.03;;;10.38;83.51
16525;BME280;8375;33.594;-117.718;2023-01-29T07:47:25;100250.75;;;10.37;83.14
16525;BME280;8375;33.594;-117.718;2023-01-29T07:49:54;100236.13;;;10.36;82.91
16525;BME280;8375;33.594;-117.718;2023-01-29T07:52:25;100233.53;;;10.36;82.31
16525;BME280;8375;33.594;-117.718;2023-01-29T07:54:54;100243.63;;;10.41;82.19
16525;BME280;8375;33.594;-117.718;2023-01-29T07:57:23;100236.84;;;10.38;81.65
16525;BME280;8375;33.594;-117.718;2023-01-29T07:59:52;100226.69;;;10.35;81.73
16525;BME280;8375;33.594;-117.718;2023-01-29T08:02:21;100226.47;;;10.38;81.61
16525;BME280;8375;33.594;-117.718;2023-01-29T08:04:50;100223.88;;;10.38;81.49
16525;BME280;8375;33.594;-117.718;2023-01-29T08:07:18;100218.69;;;10.38;81.12
16525;BME280;8375;33.594;-117.718;2023-01-29T08:09:49;100215.28;;;10.38;81.57
16525;BME280;8375;33.594;-117.718;2023-01-29T08:12:18;100216.09;;;10.38;81.02
16525;BME280;8375;33.594;-117.718;2023-01-29T08:14:46;100222.97;;;10.39;81.34
16525;BME280;8375;33.594;-117.718;2023-01-29T08:17:15;100214.66;;;10.34;80.92
16525;BME280;8375;33.594;-117.718;2023-01-29T08:19:44;100218.63;;;10.40;81.12
16525;BME280;8375;33.594;-117.718;2023-01-29T08:22:13;100208.81;;;10.44;81.12
16525;BME280;8375;33.594;-117.718;2023-01-29T08:24:42;100214.00;;;10.44;81.04
16525;BME280;8375;33.594;-117.718;2023-01-29T08:27:12;100210.47;;;10.45;80.96
16525;BME280;8375;33.594;-117.718;2023-01-29T08:29:41;100215.56;;;10.46;81.61
16525;BME280;8375;33.594;-117.718;2023-01-29T08:32:09;100214.84;;;10.44;81.88
16525;BME280;8375;33.594;-117.718;2023-01-29T08:34:38;100222.13;;;10.39;82.41
16525;BME280;8375;33.594;-117.718;2023-01-29T08:37:07;100214.44;;;10.37;83.17
16525;BME280;8375;33.594;-117.718;2023-01-29T08:39:36;100207.38;;;10.39;82.67
16525;BME280;8375;33.594;-117.718;2023-01-29T08:42:05;100202.19;;;10.39;82.54
16525;BME280;8375;33.594;-117.718;2023-01-29T08:44:35;100209.03;;;10.40;82.50
16525;BME280;8375;33.594;-117.718;2023-01-29T08:47:04;100206.56;;;10.39;82.42
16525;BME280;8375;33.594;-117.718;2023-01-29T08:49:33;100211.63;;;10.40;82.61
16525;BME280;8375;33.594;-117.718;2023-01-29T08:52:01;100198.75;;;10.39;82.65
16525;BME280;8375;33.594;-117.718;2023-01-29T08:54:30;100206.44;;;10.40;82.29
16525;BME280;8375;33.594;-117.718;2023-01-29T08:56:58;100196.91;;;10.41;82.35
16525;BME280;8375;33.594;-117.718;2023-01-29T08:59:27;100208.94;;;10.42;81.92
16525;BME280;8375;33.594;-117.718;2023-01-29T09:01:57;100206.94;;;10.46;82.02
16525;BME280;8375;33.594;-117.718;2023-01-29T09:04:26;100198.09;;;10.48;81.26
16525;BME280;8375;33.594;-117.718;2023-01-29T09:06:54;100198.91;;;10.49;80.71
16525;BME280;8375;33.594;-117.718;2023-01-29T09:09:23;100204.09;;;10.49;80.85
16525;BME280;8375;33.594;-117.718;2023-01-29T09:11:51;100204.81;;;10.51;80.26
16525;BME280;8375;33.594;-117.718;2023-01-29T09:14:20;100197.25;;;10.48;80.45
16525;BME280;8375;33.594;-117.718;2023-01-29T09:16:49;100193.84;;;10.47;80.60
16525;BME280;8375;33.594;-117.718;2023-01-29T09:19:19;100195.38;;;10.50;80.53
16525;BME280;8375;33.594;-117.718;2023-01-29T09:21:47;100192.53;;;10.53;80.75
16525;BME280;8375;33.594;-117.718;2023-01-29T09:24:16;100188.06;;;10.55;80.42
16525;BME280;8375;33.594;-117.718;2023-01-29T09:26:45;100187.25;;;10.54;80.29
16525;BME280;8375;33.594;-117.718;2023-01-29T09:29:14;100185.69;;;10.52;80.42
16525;BME280;8375;33.594;-117.718;2023-01-29T09:31:42;100182.84;;;10.55;81.23
16525;BME280;8375;33.594;-117.718;2023-01-29T09:34:11;100181.69;;;10.59;80.83
16525;BME280;8375;33.594;-117.718;2023-01-29T09:36:41;100177.31;;;10.60;81.23
16525;BME280;8375;33.594;-117.718;2023-01-29T09:39:10;100177.09;;;10.63;80.16
16525;BME280;8375;33.594;-117.718;2023-01-29T09:41:46;100165.06;;;10.62;79.23
16525;BME280;8375;33.594;-117.718;2023-01-29T09:44:25;100169.66;;;10.58;79.21
16525;BME280;8375;33.594;-117.718;2023-01-29T09:46:56;100167.28;;;10.55;79.79
16525;BME280;8375;33.594;-117.718;2023-01-29T09:49:29;100167.66;;;10.50;81.01
16525;BME280;8375;33.594;-117.718;2023-01-29T09:52:07;100165.06;;;10.50;80.29
16525;BME280;8375;33.594;-117.718;2023-01-29T09:54:48;100164.59;;;10.45;80.82
16525;BME280;8375;33.594;-117.718;2023-01-29T09:57:23;100161.16;;;10.45;80.81
16525;BME280;8375;33.594;-117.718;2023-01-29T09:59:53;100166.09;;;10.48;80.71
16525;BME280;8375;33.594;-117.718;2023-01-29T10:02:41;100163.41;;;10.49;80.64
16525;BME280;8375;33.594;-117.718;2023-01-29T10:05:41;100157.63;;;10.46;80.63
16525;BME280;8375;33.594;-117.718;2023-01-29T10:11:23;100156.19;;;10.41;81.71
16525;BME280;8375;33.594;-117.718;2023-01-29T10:14:03;100158.69;;;10.43;81.28
16525;BME280;8375;33.594;-117.718;2023-01-29T10:16:47;100162.09;;;10.44;81.51
16525;BME280;8375;33.594;-117.718;2023-01-29T10:22:27;100172.25;;;10.47;81.54
16525;BME280;8375;33.594;-117.718;2023-01-29T10:25:03;100168.13;;;10.44;81.49
16525;BME280;8375;33.594;-117.718;2023-01-29T10:27:37;100171.66;;;10.43;81.80
16525;BME280;8375;33.594;-117.718;2023-01-29T10:30:16;100178.75;;;10.41;81.72
16525;BME280;8375;33.594;-117.718;2023-01-29T10:32:48;100175.06;;;10.44;82.34
16525;BME280;8375;33.594;-117.718;2023-01-29T10:35:22;100176.00;;;10.42;82.07
16525;BME280;8375;33.594;-117.718;2023-01-29T10:37:52;100166.34;;;10.45;82.78
16525;BME280;8375;33.594;-117.718;2023-01-29T10:40:23;100170.59;;;10.46;82.64
16525;BME280;8375;33.594;-117.718;2023-01-29T10:43:01;100164.69;;;10.44;82.54
16525;BME280;8375;33.594;-117.718;2023-01-29T10:45:40;100168.69;;;10.48;83.16
16525;BME280;8375;33.594;-117.718;2023-01-29T10:48:36;100164.13;;;10.51;83.69
16525;BME280;8375;33.594;-117.718;2023-01-29T10:51:19;100154.78;;;10.49;82.60
16525;BME280;8375;33.594;-117.718;2023-01-29T10:54:04;100148.53;;;10.51;83.10
16525;BME280;8375;33.594;-117.718;2023-01-29T10:56:46;100150.19;;;10.52;83.51
16525;BME280;8375;33.594;-117.718;2023-01-29T10:59:38;100151.00;;;10.53;83.88
16525;BME280;8375;33.594;-117.718;2023-01-29T11:02:15;100143.22;;;10.53;84.11
16525;BME280;8375;33.594;-117.718;2023-01-29T11:04:45;100147.84;;;10.49;83.71
16525;BME280;8375;33.594;-117.718;2023-01-29T11:07:16;100134.63;;;10.52;83.94
16525;BME280;8375;33.594;-117.718;2023-01-29T11:09:51;100128.13;;;10.47;83.68
16525;BME280;8375;33.594;-117.718;2023-01-29T11:12:24;100126.38;;;10.47;83.93
16525;BME280;8375;33.594;-117.718;2023-01-29T11:15:00;100121.03;;;10.49;83.62
16525;BME280;8375;33.594;-117.718;2023-01-29T11:17:30;100121.19;;;10.47;84.12
16525;BME280;8375;33.594;-117.718;2023-01-29T11:19:59;100119.75;;;10.43;84.17
16525;BME280;8375;33.594;-117.718;2023-01-29T11:22:28;100118.22;;;10.40;84.80
16525;BME280;8375;33.594;-117.718;2023-01-29T11:25:14;100128.59;;;10.40;84.83
16525;BME280;8375;33.594;-117.718;2023-01-29T11:27:45;100126.84;;;10.41;84.96
16525;BME280;8375;33.594;-117.718;2023-01-29T11:30:23;100139.81;;;10.41;84.79
16525;BME280;8375;33.594;-117.718;2023-01-29T11:33:05;100145.00;;;10.41;85.01
16525;BME280;8375;33.594;-117.718;2023-01-29T11:35:35;100143.22;;;10.41;85.78
16525;BME280;8375;33.594;-117.718;2023-01-29T11:38:17;100142.28;;;10.42;85.67
16525;BME280;8375;33.594;-117.718;2023-01-29T11:40:46;100143.69;;;10.47;86.74
16525;BME280;8375;33.594;-117.718;2023-01-29T11:43:22;100140.88;;;10.50;87.12
16525;BME280;8375;33.594;-117.718;2023-01-29T11:45:58;100145.34;;;10.48;87.40
16525;BME280;8375;33.594;-117.718;2023-01-29T11:48:33;100136.13;;;10.55;86.85
16525;BME280;8375;33.594;-117.718;2023-01-29T11:51:09;100145.72;;;10.54;86.77
16525;BME280;8375;33.594;-117.718;2023-01-29T11:53:39;100155.97;;;10.56;87.70
16525;BME280;8375;33.594;-117.718;2023-01-29T11:56:22;100153.38;;;10.56;86.98
16525;BME280;8375;33.594;-117.718;2023-01-29T11:58:55;100146.41;;;10.56;87.06
16525;BME280;8375;33.594;-117.718;2023-01-29T12:01:31;100148.31;;;10.54;87.17
16525;BME280;8375;33.594;-117.718;2023-01-29T12:04:00;100142.28;;;10.54;87.01
16525;BME280;8375;33.594;-117.718;2023-01-29T12:06:33;100142.88;;;10.57;87.43
16525;BME280;8375;33.594;-117.718;2023-01-29T12:09:08;100145.56;;;10.56;87.17
16525;BME280;8375;33.594;-117.718;2023-01-29T12:11:38;100141.47;;;10.53;87.04
16525;BME280;8375;33.594;-117.718;2023-01-29T12:14:26;100133.44;;;10.56;87.42
16525;BME280;8375;33.594;-117.718;2023-01-29T12:17:00;100121.97;;;10.59;87.71
16525;BME280;8375;33.594;-117.718;2023-01-29T12:19:37;100119.03;;;10.64;88.12
16525;BME280;8375;33.594;-117.718;2023-01-29T12:22:14;100116.34;;;10.65;87.32
16525;BME280;8375;33.594;-117.718;2023-01-29T12:24:49;100119.16;;;10.62;86.74
16525;BME280;8375;33.594;-117.718;2023-01-29T12:27:24;100118.81;;;10.55;86.81
16525;BME280;8375;33.594;-117.718;2023-01-29T12:29:58;100115.28;;;10.56;86.57
16525;BME280;8375;33.594;-117.718;2023-01-29T12:32:36;100113.03;;;10.52;87.36
16525;BME280;8375;33.594;-117.718;2023-01-29T12:35:13;100115.63;;;10.52;87.47
16525;BME280;8375;33.594;-117.718;2023-01-29T12:37:51;100105.22;;;10.52;86.63
16525;BME280;8375;33.594;-117.718;2023-01-29T12:40:25;100096.75;;;10.50;85.75
16525;BME280;8375;33.594;-117.718;2023-01-29T12:43:00;100096.75;;;10.50;85.87
16525;BME280;8375;33.594;-117.718;2023-01-29T12:45:32;100102.06;;;10.48;86.26
16525;BME280;8375;33.594;-117.718;2023-01-29T12:48:06;100100.53;;;10.46;86.56
16525;BME280;8375;33.594;-117.718;2023-01-29T12:50:36;100100.53;;;10.46;86.72
16525;BME280;8375;33.594;-117.718;2023-01-29T12:53:12;100102.88;;;10.49;86.17
16525;BME280;8375;33.594;-117.718;2023-01-29T12:55:48;100090.97;;;10.46;86.51
16525;BME280;8375;33.594;-117.718;2023-01-29T12:58:22;100099.94;;;10.53;88.23
16525;BME280;8375;33.594;-117.718;2023-01-29T13:00:56;100088.84;;;10.51;87.12
16525;BME280;8375;33.594;-117.718;2023-01-29T13:03:31;100086.50;;;10.48;85.90
16525;BME280;8375;33.594;-117.718;2023-01-29T13:06:04;100076.44;;;10.55;87.70
16525;BME280;8375;33.594;-117.718;2023-01-29T13:08:37;100085.78;;;10.57;87.38
16525;BME280;8375;33.594;-117.718;2023-01-29T13:11:12;100078.34;;;10.53;86.31